createdAt,value
2018-09-29T00:01:43.493Z,4.80
2018-09-29T00:03:46.833Z,4.80
2018-09-29T00:05:49.856Z,4.80
2018-09-29T00:07:54.593Z,4.80
2018-09-29T00:09:57.614Z,4.70
2018-09-29T00:12:00.700Z,4.70
2018-09-29T00:14:04.006Z,4.70
2018-09-29T00:16:07.890Z,4.70
2018-09-29T00:18:10.918Z,4.70
2018-09-29T00:20:13.956Z,4.70
2018-09-29T00:22:16.944Z,4.70
2018-09-29T00:24:19.961Z,4.70
2018-09-29T00:26:24.663Z,4.70
2018-09-29T00:28:27.625Z,4.70
2018-09-29T00:30:30.975Z,4.70
2018-09-29T00:32:33.954Z,4.70
2018-09-29T00:34:36.984Z,4.70
2018-09-29T00:36:40.038Z,4.60
2018-09-29T00:38:43.058Z,4.60
2018-09-29T00:40:46.069Z,4.50
2018-09-29T00:42:49.072Z,4.50
2018-09-29T00:44:53.452Z,4.50
2018-09-29T00:46:56.416Z,4.50
2018-09-29T00:48:59.785Z,4.50
2018-09-29T00:51:02.853Z,4.40
2018-09-29T00:53:05.907Z,4.40
2018-09-29T00:55:09.132Z,4.40
2018-09-29T00:57:12.169Z,4.40
2018-09-29T00:59:15.200Z,4.40
2018-09-29T01:01:18.239Z,4.30
2018-09-29T01:03:22.637Z,4.30
2018-09-29T01:05:25.802Z,4.30
2018-09-29T01:07:28.807Z,4.30
2018-09-29T01:09:31.800Z,4.30
2018-09-29T01:11:34.831Z,4.20
2018-09-29T01:13:37.853Z,4.20
2018-09-29T01:15:40.900Z,4.20
2018-09-29T01:17:43.904Z,4.20
2018-09-29T01:19:46.911Z,4.20
2018-09-29T01:21:49.947Z,4.20
2018-09-29T01:23:54.594Z,4.20
2018-09-29T01:25:57.642Z,4.20
2018-09-29T01:28:00.788Z,4.30
2018-09-29T01:30:03.875Z,4.20
2018-09-29T01:32:06.838Z,4.20
2018-09-29T01:34:09.956Z,4.20
2018-09-29T01:36:12.941Z,4.20
2018-09-29T01:38:15.964Z,4.10
2018-09-29T01:40:19.000Z,4.10
2018-09-29T01:42:23.437Z,4.10
2018-09-29T01:44:26.653Z,4.00
2018-09-29T01:46:29.660Z,4.00
2018-09-29T01:48:32.656Z,3.90
2018-09-29T01:50:35.675Z,3.90
2018-09-29T01:52:38.684Z,3.90
2018-09-29T01:54:41.730Z,3.90
2018-09-29T01:56:44.737Z,3.90
2018-09-29T01:58:47.709Z,3.90
2018-09-29T02:00:52.251Z,4.00
2018-09-29T02:02:55.341Z,4.00
2018-09-29T02:04:58.420Z,4.00
2018-09-29T02:07:01.448Z,4.00
2018-09-29T02:09:05.697Z,4.00
2018-09-29T02:11:08.733Z,4.00
2018-09-29T02:13:11.792Z,3.90
2018-09-29T02:15:14.753Z,4.00
2018-09-29T02:17:17.853Z,3.90
2018-09-29T02:19:22.646Z,3.80
2018-09-29T02:21:25.656Z,3.90
2018-09-29T02:23:29.029Z,3.80
2018-09-29T02:25:32.077Z,3.70
2018-09-29T02:27:35.056Z,3.60
2018-09-29T02:29:38.295Z,3.60
2018-09-29T02:31:41.305Z,3.60
2018-09-29T02:33:44.324Z,3.60
2018-09-29T02:35:47.381Z,3.60
2018-09-29T02:37:50.409Z,3.60
2018-09-29T02:39:53.473Z,3.60
2018-09-29T02:41:56.506Z,3.60
2018-09-29T02:43:59.548Z,3.50
2018-09-29T02:46:02.604Z,3.50
2018-09-29T02:48:05.717Z,3.50
2018-09-29T02:50:08.805Z,3.50
2018-09-29T02:52:11.831Z,3.60
2018-09-29T02:54:14.851Z,3.60
2018-09-29T02:56:17.861Z,3.70
2018-09-29T02:58:22.209Z,3.70
2018-09-29T03:00:25.474Z,3.70
2018-09-29T03:02:28.524Z,3.70
2018-09-29T03:04:31.518Z,3.70
2018-09-29T03:06:34.545Z,3.70
2018-09-29T03:08:37.619Z,3.70
2018-09-29T03:10:40.672Z,3.70
2018-09-29T03:12:43.788Z,3.70
2018-09-29T03:14:46.815Z,3.70
2018-09-29T03:16:49.853Z,3.60
2018-09-29T03:18:54.642Z,3.60
2018-09-29T03:20:57.653Z,3.50
2018-09-29T03:23:00.710Z,3.50
2018-09-29T03:25:03.859Z,3.40
2018-09-29T03:27:06.961Z,3.30
2018-09-29T03:29:09.982Z,3.30
2018-09-29T03:31:12.986Z,3.30
2018-09-29T03:33:16.007Z,3.20
2018-09-29T03:35:19.019Z,3.20
2018-09-29T03:37:22.742Z,3.20
2018-09-29T03:39:25.790Z,3.20
2018-09-29T03:41:28.789Z,3.20
2018-09-29T03:43:31.810Z,3.20
2018-09-29T03:45:34.796Z,3.30
2018-09-29T03:47:37.833Z,3.20
2018-09-29T03:49:40.901Z,3.20
2018-09-29T03:51:43.916Z,3.20
2018-09-29T03:53:46.926Z,3.30
2018-09-29T03:55:49.953Z,3.30
2018-09-29T03:57:54.252Z,3.20
2018-09-29T03:59:57.305Z,3.20
2018-09-29T04:02:00.353Z,3.20
2018-09-29T04:04:03.445Z,3.10
2018-09-29T04:06:06.510Z,3.10
2018-09-29T04:08:09.532Z,3.10
2018-09-29T04:10:12.908Z,3.10
2018-09-29T04:12:15.987Z,3.10
2018-09-29T04:14:19.025Z,3.20
2018-09-29T04:16:23.626Z,3.20
2018-09-29T04:18:26.608Z,3.20
2018-09-29T04:20:29.618Z,3.20
2018-09-29T04:22:32.680Z,3.20
2018-09-29T04:24:35.699Z,3.20
2018-09-29T04:26:38.727Z,3.20
2018-09-29T04:28:41.759Z,3.20
2018-09-29T04:30:44.761Z,3.10
2018-09-29T04:32:47.819Z,3.10
2018-09-29T04:34:52.680Z,3.10
2018-09-29T04:36:55.724Z,3.00
2018-09-29T04:38:58.960Z,3.00
2018-09-29T04:41:01.987Z,2.90
2018-09-29T04:43:05.165Z,2.90
2018-09-29T04:45:08.260Z,2.80
2018-09-29T04:47:11.346Z,2.80
2018-09-29T04:49:14.460Z,2.80
2018-09-29T04:51:17.698Z,2.80
2018-09-29T04:53:22.136Z,2.80
2018-09-29T04:55:25.160Z,2.80
2018-09-29T04:57:28.303Z,2.80
2018-09-29T04:59:31.273Z,2.80
2018-09-29T05:01:34.300Z,2.80
2018-09-29T05:03:37.676Z,2.80
2018-09-29T05:05:40.761Z,2.80
2018-09-29T05:07:43.799Z,2.80
2018-09-29T05:09:46.870Z,2.80
2018-09-29T05:11:49.919Z,2.70
2018-09-29T05:13:54.849Z,2.70
2018-09-29T05:15:58.221Z,2.70
2018-09-29T05:18:01.248Z,2.70
2018-09-29T05:20:04.298Z,2.70
2018-09-29T05:22:07.636Z,2.60
2018-09-29T05:24:10.648Z,2.60
2018-09-29T05:26:13.623Z,2.60
2018-09-29T05:28:16.702Z,2.60
2018-09-29T05:30:19.715Z,2.60
2018-09-29T05:32:24.296Z,2.60
2018-09-29T05:34:27.322Z,2.60
2018-09-29T05:36:30.374Z,2.60
2018-09-29T05:38:33.485Z,2.60
2018-09-29T05:40:36.595Z,2.60
2018-09-29T05:42:39.618Z,2.60
2018-09-29T05:44:42.736Z,2.60
2018-09-29T05:46:45.794Z,2.60
2018-09-29T05:48:48.824Z,2.60
2018-09-29T05:50:54.004Z,2.70
2018-09-29T05:52:56.973Z,2.70
2018-09-29T05:54:59.969Z,2.70
2018-09-29T05:57:03.226Z,2.70
2018-09-29T05:59:06.282Z,2.70
2018-09-29T06:01:09.366Z,2.80
2018-09-29T06:03:12.459Z,2.80
2018-09-29T06:05:15.519Z,2.90
2018-09-29T06:07:18.613Z,2.90
2018-09-29T06:09:22.951Z,3.00
2018-09-29T06:11:26.018Z,3.00
2018-09-29T06:13:29.003Z,3.10
2018-09-29T06:15:32.122Z,3.10
2018-09-29T06:17:35.172Z,3.20
2018-09-29T06:19:38.198Z,3.20
2018-09-29T06:21:41.541Z,3.20
2018-09-29T06:23:44.541Z,3.20
2018-09-29T06:25:47.549Z,3.30
2018-09-29T06:27:52.019Z,3.30
2018-09-29T06:29:55.050Z,3.40
2018-09-29T06:31:58.139Z,3.50
2018-09-29T06:34:01.203Z,3.60
2018-09-29T06:36:04.319Z,3.70
2018-09-29T06:38:07.384Z,3.80
2018-09-29T06:40:10.397Z,3.90
2018-09-29T06:42:13.477Z,3.90
2018-09-29T06:44:16.532Z,4.00
2018-09-29T06:46:19.559Z,4.10
2018-09-29T06:48:24.289Z,4.30
2018-09-29T06:50:28.025Z,4.40
2018-09-29T06:52:31.060Z,4.50
2018-09-29T06:54:34.163Z,4.70
2018-09-29T06:56:37.231Z,4.90
2018-09-29T06:58:40.315Z,5.10
2018-09-29T07:00:43.385Z,5.30
2018-09-29T07:02:46.525Z,5.50
2018-09-29T07:04:49.572Z,5.70
2018-09-29T07:06:53.899Z,5.80
2018-09-29T07:08:56.908Z,6.00
2018-09-29T07:10:59.955Z,6.10
2018-09-29T07:13:02.997Z,6.30
2018-09-29T07:15:07.250Z,6.40
2018-09-29T07:17:10.282Z,6.60
2018-09-29T07:19:13.353Z,6.80
2018-09-29T07:21:16.374Z,6.90
2018-09-29T07:23:19.409Z,7.10
2018-09-29T07:25:24.384Z,7.10
2018-09-29T07:27:27.345Z,7.30
2018-09-29T07:29:30.345Z,7.50
2018-09-29T07:31:33.415Z,7.50
2018-09-29T07:33:36.407Z,7.60
2018-09-29T07:35:39.495Z,7.70
2018-09-29T07:37:42.526Z,7.80
2018-09-29T07:39:45.545Z,7.90
2018-09-29T07:41:48.593Z,8.10
2018-09-29T07:43:53.096Z,8.30
2018-09-29T07:45:56.134Z,8.40
2018-09-29T07:47:59.182Z,8.60
2018-09-29T07:50:02.257Z,8.80
2018-09-29T07:52:05.417Z,9.10
2018-09-29T07:54:08.473Z,9.30
2018-09-29T07:56:11.540Z,9.40
2018-09-29T07:58:14.545Z,9.60
2018-09-29T08:00:17.593Z,9.70
2018-09-29T08:02:22.172Z,9.80
2018-09-29T08:04:25.401Z,10.00
2018-09-29T08:06:28.622Z,10.20
2018-09-29T08:08:31.713Z,10.40
2018-09-29T08:10:34.950Z,10.50
2018-09-29T08:12:38.064Z,10.60
2018-09-29T08:14:41.105Z,10.80
2018-09-29T08:16:44.150Z,10.80
2018-09-29T08:18:47.157Z,10.90
2018-09-29T08:20:50.176Z,11.00
2018-09-29T08:22:54.608Z,11.20
2018-09-29T08:24:57.632Z,11.30
2018-09-29T08:27:00.649Z,11.50
2018-09-29T08:29:03.679Z,11.60
2018-09-29T08:31:06.833Z,11.70
2018-09-29T08:33:09.826Z,11.70
2018-09-29T08:35:12.937Z,11.70
2018-09-29T08:37:15.919Z,11.90
2018-09-29T08:39:18.905Z,12.00
2018-09-29T08:41:24.428Z,12.20
2018-09-29T08:43:27.580Z,12.30
2018-09-29T08:45:30.616Z,12.40
2018-09-29T08:47:33.990Z,12.60
2018-09-29T08:49:36.990Z,12.70
2018-09-29T08:51:39.984Z,12.80
2018-09-29T08:53:43.074Z,12.80
2018-09-29T08:55:46.121Z,12.80
2018-09-29T08:57:49.152Z,13.00
2018-09-29T08:59:53.509Z,13.00
2018-09-29T09:01:56.549Z,13.00
2018-09-29T09:03:59.635Z,13.10
2018-09-29T09:06:02.595Z,13.00
2018-09-29T09:08:06.047Z,13.10
2018-09-29T09:10:09.123Z,13.20
2018-09-29T09:12:12.200Z,13.20
2018-09-29T09:14:15.444Z,13.20
2018-09-29T09:16:18.510Z,13.30
2018-09-29T09:18:22.873Z,13.40
2018-09-29T09:20:26.263Z,13.40
2018-09-29T09:22:29.256Z,13.60
2018-09-29T09:24:32.285Z,13.70
2018-09-29T09:26:35.580Z,13.90
2018-09-29T09:28:38.649Z,13.90
2018-09-29T09:30:41.837Z,14.10
2018-09-29T09:32:45.145Z,14.10
2018-09-29T09:34:48.202Z,14.00
2018-09-29T09:36:52.653Z,14.10
2018-09-29T09:38:55.684Z,14.30
2018-09-29T09:40:58.710Z,14.50
2018-09-29T09:43:01.801Z,14.70
2018-09-29T09:45:05.885Z,14.80
2018-09-29T09:47:08.905Z,14.80
2018-09-29T09:49:11.917Z,14.80
2018-09-29T09:51:15.299Z,14.70
2018-09-29T09:53:18.313Z,14.50
2018-09-29T09:55:23.229Z,14.30
2018-09-29T09:57:26.317Z,14.30
2018-09-29T09:59:29.665Z,14.30
2018-09-29T10:01:35.320Z,14.50
2018-09-29T10:03:38.323Z,14.70
2018-09-29T10:05:41.569Z,14.80
2018-09-29T10:07:44.589Z,15.00
2018-09-29T10:09:47.645Z,15.20
2018-09-29T10:11:52.932Z,15.30
2018-09-29T10:13:55.938Z,15.40
2018-09-29T10:15:58.937Z,15.40
2018-09-29T10:18:02.401Z,15.30
2018-09-29T10:20:05.962Z,15.10
2018-09-29T10:22:08.972Z,15.10
2018-09-29T10:24:12.021Z,15.30
2018-09-29T10:26:15.016Z,15.50
2018-09-29T10:28:18.006Z,15.70
2018-09-29T10:30:21.316Z,15.80
2018-09-29T10:32:24.356Z,15.80
2018-09-29T10:34:27.358Z,15.80
2018-09-29T10:36:30.793Z,15.90
2018-09-29T10:38:33.859Z,16.00
2018-09-29T10:40:36.995Z,16.10
2018-09-29T10:42:40.130Z,16.20
2018-09-29T10:44:43.534Z,16.40
2018-09-29T10:46:46.552Z,16.40
2018-09-29T10:48:49.654Z,16.30
2018-09-29T10:50:54.461Z,16.30
2018-09-29T10:52:57.588Z,16.40
2018-09-29T10:55:00.622Z,16.40
2018-09-29T10:57:03.998Z,16.50
2018-09-29T10:59:07.427Z,16.30
2018-09-29T11:01:10.514Z,16.40
2018-09-29T11:03:13.913Z,16.40
2018-09-29T11:05:16.979Z,16.50
2018-09-29T11:07:20.069Z,16.60
2018-09-29T11:09:24.470Z,16.80
2018-09-29T11:11:27.504Z,16.90
2018-09-29T11:13:30.549Z,16.90
2018-09-29T11:15:33.637Z,17.00
2018-09-29T11:17:36.662Z,17.10
2018-09-29T11:19:39.893Z,17.30
2018-09-29T11:21:42.920Z,17.50
2018-09-29T11:23:45.918Z,17.60
2018-09-29T11:25:49.266Z,17.60
2018-09-29T11:27:53.624Z,17.70
2018-09-29T11:29:56.605Z,17.80
2018-09-29T11:32:00.082Z,17.80
2018-09-29T11:34:03.135Z,17.80
2018-09-29T11:36:06.179Z,17.80
2018-09-29T11:38:09.324Z,18.00
2018-09-29T11:40:12.693Z,18.00
2018-09-29T11:42:15.682Z,18.00
2018-09-29T11:44:18.740Z,18.20
2018-09-29T11:46:23.455Z,18.30
2018-09-29T11:48:26.479Z,18.40
2018-09-29T11:50:29.498Z,18.30
2018-09-29T11:52:32.844Z,18.20
2018-09-29T11:54:35.879Z,18.00
2018-09-29T11:56:38.926Z,17.70
2018-09-29T11:58:42.028Z,17.40
2018-09-29T12:00:45.121Z,17.50
2018-09-29T12:02:48.110Z,17.70
2018-09-29T12:04:52.867Z,17.90
2018-09-29T12:06:55.996Z,18.20
2018-09-29T12:08:59.053Z,18.30
2018-09-29T12:11:02.089Z,18.40
2018-09-29T12:13:05.178Z,18.40
2018-09-29T12:15:08.242Z,18.60
2018-09-29T12:17:11.248Z,18.50
2018-09-29T12:19:14.350Z,18.60
2018-09-29T12:21:17.373Z,18.80
2018-09-29T12:23:20.427Z,18.90
2018-09-29T12:25:23.480Z,18.80
2018-09-29T12:27:26.498Z,18.70
2018-09-29T12:29:29.589Z,18.60
2018-09-29T12:31:32.924Z,18.50
2018-09-29T12:33:35.999Z,18.30
2018-09-29T12:35:39.051Z,18.00
2018-09-29T12:37:42.275Z,18.20
2018-09-29T12:39:45.281Z,18.30
2018-09-29T12:41:48.314Z,18.40
2018-09-29T12:43:52.965Z,18.50
2018-09-29T12:45:56.033Z,18.60
2018-09-29T12:47:59.074Z,18.60
2018-09-29T12:50:02.197Z,18.60
2018-09-29T12:52:05.280Z,18.50
2018-09-29T12:54:08.310Z,18.30
2018-09-29T12:56:11.324Z,18.30
2018-09-29T12:58:14.344Z,18.40
2018-09-29T13:00:17.424Z,18.20
2018-09-29T13:02:20.476Z,17.90
2018-09-29T13:04:24.590Z,17.60
2018-09-29T13:06:27.601Z,17.30
2018-09-29T13:08:30.633Z,17.30
2018-09-29T13:10:33.668Z,17.60
2018-09-29T13:12:36.744Z,18.00
2018-09-29T13:14:39.800Z,18.20
2018-09-29T13:16:42.899Z,18.20
2018-09-29T13:18:45.967Z,18.20
2018-09-29T13:20:49.044Z,18.30
2018-09-29T13:22:53.755Z,18.50
2018-09-29T13:24:56.785Z,18.50
2018-09-29T13:26:59.877Z,18.50
2018-09-29T13:29:02.925Z,18.80
2018-09-29T13:31:06.243Z,18.80
2018-09-29T13:33:09.543Z,18.90
2018-09-29T13:35:12.625Z,18.60
2018-09-29T13:37:15.734Z,18.50
2018-09-29T13:39:18.820Z,18.10
2018-09-29T13:41:23.612Z,17.60
2018-09-29T13:43:26.650Z,17.40
2018-09-29T13:45:29.692Z,17.50
2018-09-29T13:47:32.701Z,17.70
2018-09-29T13:49:35.717Z,17.90
2018-09-29T13:51:38.767Z,18.00
2018-09-29T13:53:41.807Z,18.30
2018-09-29T13:55:44.834Z,18.50
2018-09-29T13:57:47.905Z,18.50
2018-09-29T13:59:52.413Z,18.60
2018-09-29T14:01:55.521Z,18.60
2018-09-29T14:03:58.654Z,18.50
2018-09-29T14:06:01.712Z,18.30
2018-09-29T14:08:05.115Z,18.20
2018-09-29T14:10:08.204Z,18.20
2018-09-29T14:12:11.234Z,18.00
2018-09-29T14:14:14.350Z,18.10
2018-09-29T14:16:17.423Z,18.00
2018-09-29T14:18:20.461Z,18.10
2018-09-29T14:20:24.426Z,18.40
2018-09-29T14:22:27.505Z,18.00
2018-09-29T14:24:30.597Z,18.20
2018-09-29T14:26:33.661Z,18.40
2018-09-29T14:28:36.659Z,18.50
2018-09-29T14:30:39.704Z,18.50
2018-09-29T14:32:42.752Z,18.60
2018-09-29T14:34:45.745Z,18.50
2018-09-29T14:36:48.764Z,18.30
2018-09-29T14:38:53.609Z,18.20
2018-09-29T14:40:56.602Z,18.20
2018-09-29T14:42:59.577Z,18.30
2018-09-29T14:45:02.819Z,18.50
2018-09-29T14:47:05.926Z,18.90
2018-09-29T14:49:09.010Z,19.20
2018-09-29T14:51:12.042Z,19.10
2018-09-29T14:53:15.069Z,19.30
2018-09-29T14:55:18.106Z,19.10
2018-09-29T14:57:21.369Z,19.40
2018-09-29T14:59:24.573Z,19.30
2018-09-29T15:01:27.636Z,19.00
2018-09-29T15:03:30.637Z,19.30
2018-09-29T15:05:33.749Z,19.90
2018-09-29T15:07:36.809Z,20.50
2018-09-29T15:09:39.838Z,20.90
2018-09-29T15:11:42.873Z,21.40
2018-09-29T15:13:45.933Z,21.70
2018-09-29T15:15:49.161Z,21.50
2018-09-29T15:17:54.211Z,21.40
2018-09-29T15:19:57.604Z,21.00
2018-09-29T15:22:00.689Z,20.80
2018-09-29T15:24:03.724Z,20.70
2018-09-29T15:26:07.253Z,20.50
2018-09-29T15:28:10.307Z,20.50
2018-09-29T15:30:13.880Z,20.50
2018-09-29T15:32:31.553Z,20.50
2018-09-29T15:34:46.787Z,20.50
2018-09-29T15:36:50.466Z,20.50
2018-09-29T15:38:53.913Z,20.80
2018-09-29T15:40:57.456Z,20.60
2018-09-29T15:43:01.203Z,20.10
2018-09-29T15:45:06.176Z,20.50
2018-09-29T15:47:10.105Z,21.00
2018-09-29T15:49:13.335Z,21.10
2018-09-29T15:51:16.352Z,21.00
2018-09-29T15:53:19.911Z,21.30
2018-09-29T15:55:24.870Z,21.20
2018-09-29T15:57:28.393Z,21.10
2018-09-29T15:59:31.629Z,21.30
2018-09-29T16:01:34.803Z,21.30
2018-09-29T16:03:37.765Z,20.90
2018-09-29T16:05:41.049Z,20.50
2018-09-29T16:07:44.075Z,20.20
2018-09-29T16:09:47.084Z,19.70
2018-09-29T16:11:50.329Z,19.40
2018-09-29T16:13:53.726Z,19.20
2018-09-29T16:15:56.713Z,18.90
2018-09-29T16:18:00.592Z,18.60
2018-09-29T16:20:03.601Z,18.20
2018-09-29T16:22:06.654Z,17.90
2018-09-29T16:24:09.677Z,17.70
2018-09-29T16:26:12.637Z,17.40
2018-09-29T16:28:15.609Z,17.40
2018-09-29T16:30:19.104Z,17.30
2018-09-29T16:32:23.936Z,17.20
2018-09-29T16:34:27.013Z,17.00
2018-09-29T16:36:30.563Z,16.80
2018-09-29T16:38:33.641Z,16.70
2018-09-29T16:40:36.627Z,16.50
2018-09-29T16:42:40.005Z,16.30
2018-09-29T16:44:43.290Z,16.10
2018-09-29T16:46:46.533Z,16.00
2018-09-29T16:48:49.593Z,15.90
2018-09-29T16:50:54.008Z,15.80
2018-09-29T16:52:57.091Z,15.50
2018-09-29T16:55:00.308Z,15.40
2018-09-29T16:57:03.348Z,15.20
2018-09-29T16:59:06.809Z,15.10
2018-09-29T17:01:09.818Z,14.90
2018-09-29T17:03:12.845Z,14.70
2018-09-29T17:05:15.916Z,14.60
2018-09-29T17:07:18.919Z,14.50
2018-09-29T17:09:23.465Z,14.30
2018-09-29T17:11:26.495Z,14.20
2018-09-29T17:13:29.561Z,14.00
2018-09-29T17:15:32.600Z,14.00
2018-09-29T17:17:35.678Z,13.90
2018-09-29T17:19:38.743Z,13.80
2018-09-29T17:21:41.852Z,13.60
2018-09-29T17:23:44.881Z,13.50
2018-09-29T17:25:48.217Z,13.40
2018-09-29T17:27:52.873Z,13.40
2018-09-29T17:29:55.880Z,13.50
2018-09-29T17:31:59.043Z,13.40
2018-09-29T17:34:01.950Z,13.20
2018-09-29T17:36:04.977Z,13.00
2018-09-29T17:38:08.003Z,12.90
2018-09-29T17:40:11.066Z,12.90
2018-09-29T17:42:14.101Z,12.80
2018-09-29T17:44:17.462Z,12.60
2018-09-29T17:46:21.773Z,12.50
2018-09-29T17:48:24.804Z,12.30
2018-09-29T17:50:27.845Z,12.20
2018-09-29T17:52:30.810Z,12.10
2018-09-29T17:54:33.784Z,11.90
2018-09-29T17:56:36.796Z,11.80
2018-09-29T17:58:39.832Z,11.70
2018-09-29T18:00:42.954Z,11.70
2018-09-29T18:02:45.973Z,11.80
2018-09-29T18:04:49.000Z,11.60
2018-09-29T18:06:53.112Z,11.60
2018-09-29T18:08:56.050Z,11.50
2018-09-29T18:10:59.031Z,11.30
2018-09-29T18:13:01.987Z,11.20
2018-09-29T18:15:05.054Z,11.10
2018-09-29T18:17:08.054Z,11.00
2018-09-29T18:19:11.453Z,10.90
2018-09-29T18:21:14.476Z,10.80
2018-09-29T18:23:17.474Z,10.60
2018-09-29T18:25:22.665Z,10.50
2018-09-29T18:27:25.752Z,10.50
2018-09-29T18:29:29.521Z,10.40
2018-09-29T18:31:34.543Z,10.30
2018-09-29T18:33:37.512Z,10.20
2018-09-29T18:35:40.534Z,10.20
2018-09-29T18:37:43.820Z,10.20
2018-09-29T18:39:46.798Z,10.10
2018-09-29T18:41:49.794Z,10.00
2018-09-29T18:43:54.521Z,9.90
2018-09-29T18:45:57.501Z,9.90
2018-09-29T18:48:01.932Z,9.80
2018-09-29T18:50:05.012Z,9.60
2018-09-29T18:52:08.477Z,9.60
2018-09-29T18:54:11.525Z,9.70
2018-09-29T18:56:14.542Z,9.60
2018-09-29T18:58:17.543Z,9.50
2018-09-29T19:00:22.097Z,9.40
2018-09-29T19:02:25.160Z,9.30
2018-09-29T19:04:28.242Z,9.20
2018-09-29T19:06:31.269Z,9.10
2018-09-29T19:08:34.254Z,9.00
2018-09-29T19:10:37.271Z,8.80
2018-09-29T19:12:40.707Z,8.80
2018-09-29T19:14:43.704Z,8.70
2018-09-29T19:16:46.716Z,8.60
2018-09-29T19:18:49.772Z,8.60
2018-09-29T19:20:54.500Z,8.50
2018-09-29T19:22:57.653Z,8.50
2018-09-29T19:25:00.648Z,8.60
2018-09-29T19:27:03.702Z,8.60
2018-09-29T19:29:06.971Z,8.50
2018-09-29T19:31:10.087Z,8.50
2018-09-29T19:33:13.092Z,8.40
2018-09-29T19:35:16.148Z,8.40
2018-09-29T19:37:19.229Z,8.20
2018-09-29T19:39:24.109Z,8.20
2018-09-29T19:41:27.227Z,8.10
2018-09-29T19:43:30.437Z,8.10
2018-09-29T19:45:33.586Z,8.10
2018-09-29T19:47:36.807Z,8.10
2018-09-29T19:49:39.943Z,8.00
2018-09-29T19:51:43.138Z,8.00
2018-09-29T19:53:46.173Z,7.90
2018-09-29T19:55:49.349Z,7.90
2018-09-29T19:57:53.712Z,7.80
2018-09-29T19:59:56.718Z,7.70
2018-09-29T20:02:00.037Z,7.60
2018-09-29T20:04:03.408Z,7.50
2018-09-29T20:06:06.468Z,7.40
2018-09-29T20:08:09.457Z,7.30
2018-09-29T20:10:12.529Z,7.30
2018-09-29T20:12:15.468Z,7.30
2018-09-29T20:14:18.561Z,7.30
2018-09-29T20:16:23.108Z,7.30
2018-09-29T20:18:26.411Z,7.20
2018-09-29T20:20:29.441Z,7.10
2018-09-29T20:22:32.440Z,7.10
2018-09-29T20:24:35.429Z,7.00
2018-09-29T20:26:38.388Z,7.00
2018-09-29T20:28:41.478Z,6.90
2018-09-29T20:30:44.517Z,6.90
2018-09-29T20:32:47.583Z,6.90
2018-09-29T20:34:51.220Z,6.80
2018-09-29T20:36:54.397Z,6.70
2018-09-29T20:38:57.424Z,6.60
2018-09-29T20:41:00.457Z,6.60
2018-09-29T20:43:03.472Z,6.50
2018-09-29T20:45:06.577Z,6.50
2018-09-29T20:47:09.563Z,6.50
2018-09-29T20:49:12.594Z,6.40
2018-09-29T20:51:15.572Z,6.40
2018-09-29T20:53:18.597Z,6.40
2018-09-29T20:55:22.917Z,6.40
2018-09-29T20:57:25.945Z,6.30
2018-09-29T20:59:28.955Z,6.30
2018-09-29T21:01:32.049Z,6.30
2018-09-29T21:03:34.968Z,6.20
2018-09-29T21:05:37.927Z,6.20
2018-09-29T21:07:40.931Z,6.20
2018-09-29T21:09:43.936Z,6.10
2018-09-29T21:11:46.900Z,6.00
2018-09-29T21:13:49.883Z,5.90
2018-09-29T21:15:54.612Z,5.90
2018-09-29T21:17:57.599Z,5.90
2018-09-29T21:20:00.573Z,5.80
2018-09-29T21:22:03.627Z,5.70
2018-09-29T21:24:06.685Z,5.70
2018-09-29T21:26:09.681Z,5.70
2018-09-29T21:28:12.688Z,5.70
2018-09-29T21:30:15.657Z,5.60
2018-09-29T21:32:18.671Z,5.60
2018-09-29T21:34:22.957Z,5.60
2018-09-29T21:36:26.011Z,5.70
2018-09-29T21:38:28.988Z,5.70
2018-09-29T21:40:32.053Z,5.70
2018-09-29T21:42:35.424Z,5.60
2018-09-29T21:44:38.397Z,5.60
2018-09-29T21:46:41.384Z,5.60
2018-09-29T21:48:44.390Z,5.60
2018-09-29T21:50:47.344Z,5.60
2018-09-29T21:52:50.276Z,5.60
2018-09-29T21:54:54.405Z,5.60
2018-09-29T21:56:57.384Z,5.60
2018-09-29T21:59:00.349Z,5.50
2018-09-29T22:01:09.114Z,5.50
2018-09-29T22:03:13.852Z,5.50
2018-09-29T22:05:16.852Z,5.50
2018-09-29T22:07:19.981Z,5.50
2018-09-29T22:09:24.628Z,5.50
2018-09-29T22:11:27.712Z,5.40
2018-09-29T22:13:30.745Z,5.40
2018-09-29T22:15:33.704Z,5.40
2018-09-29T22:17:36.701Z,5.30
2018-09-29T22:19:39.701Z,5.40
2018-09-29T22:21:42.763Z,5.30
2018-09-29T22:23:45.712Z,5.30
2018-09-29T22:25:48.694Z,5.30
2018-09-29T22:27:53.668Z,5.30
2018-09-29T22:29:56.624Z,5.30
2018-09-29T22:31:59.559Z,5.30
2018-09-29T22:34:02.929Z,5.20
2018-09-29T22:36:06.088Z,5.20
2018-09-29T22:38:09.073Z,5.20
2018-09-29T22:40:12.054Z,5.10
2018-09-29T22:42:15.040Z,5.10
2018-09-29T22:44:18.051Z,5.00
2018-09-29T22:46:23.093Z,5.00
2018-09-29T22:48:26.150Z,4.90
2018-09-29T22:50:29.163Z,4.80
2018-09-29T22:52:32.207Z,4.80
2018-09-29T22:54:35.236Z,4.80
2018-09-29T22:56:38.264Z,4.80
2018-09-29T22:58:41.481Z,4.70
2018-09-29T23:00:44.512Z,4.70
2018-09-29T23:02:47.572Z,4.70
2018-09-29T23:04:51.184Z,4.70
2018-09-29T23:06:54.214Z,4.60
2018-09-29T23:08:57.708Z,4.50
2018-09-29T23:11:00.757Z,4.50
2018-09-29T23:13:03.816Z,4.50
2018-09-29T23:15:06.900Z,4.40
2018-09-29T23:17:09.963Z,4.30
2018-09-29T23:19:13.167Z,4.20
2018-09-29T23:21:16.131Z,4.30
2018-09-29T23:23:19.161Z,4.20
2018-09-29T23:25:23.468Z,4.20
2018-09-29T23:27:26.536Z,4.20
2018-09-29T23:29:29.556Z,4.30
2018-09-29T23:31:32.588Z,4.30
2018-09-29T23:33:35.648Z,4.30
2018-09-29T23:35:39.015Z,4.30
2018-09-29T23:37:42.017Z,4.40
2018-09-29T23:39:45.011Z,4.40
2018-09-29T23:41:48.044Z,4.40
2018-09-29T23:43:52.644Z,4.40
2018-09-29T23:45:55.752Z,4.40
2018-09-29T23:47:58.868Z,4.40
2018-09-29T23:50:02.037Z,4.40
2018-09-29T23:52:05.091Z,4.40
2018-09-29T23:54:08.232Z,4.50
2018-09-29T23:56:11.237Z,4.40
2018-09-29T23:58:14.243Z,4.40
